sensor_id;sensor_type;location;lat;lon;timestamp;temperature;humidity
34460;DHT22;20704;51.260;22.558;2023-07-13T00:01:54;20.50;99.90
34460;DHT22;20704;51.260;22.558;2023-07-13T00:03:57;20.50;99.90
34460;DHT22;20704;51.260;22.558;2023-07-13T00:06:00;20.50;99.90
34460;DHT22;20704;51.260;22.558;2023-07-13T00:08:03;20.50;99.90
34460;DHT22;20704;51.260;22.558;2023-07-13T00:10:06;20.60;99.90
34460;DHT22;20704;51.260;22.558;2023-07-13T00:12:27;20.60;99.90
34460;DHT22;20704;51.260;22.558;2023-07-13T00:14:31;20.60;99.90
34460;DHT22;20704;51.260;22.558;2023-07-13T00:16:35;20.60;20.10
34460;DHT22;20704;51.260;22.558;2023-07-13T00:18:38;20.60;1.00
34460;DHT22;20704;51.260;22.558;2023-07-13T00:20:40;20.60;1.00
34460;DHT22;20704;51.260;22.558;2023-07-13T00:22:43;20.60;1.00
34460;DHT22;20704;51.260;22.558;2023-07-13T00:24:46;20.60;99.90
34460;DHT22;20704;51.260;22.558;2023-07-13T00:26:48;20.60;99.90
34460;DHT22;20704;51.260;22.558;2023-07-13T00:28:50;20.60;99.90
34460;DHT22;20704;51.260;22.558;2023-07-13T00:30:53;20.60;99.90
34460;DHT22;20704;51.260;22.558;2023-07-13T00:32:56;20.50;1.00
34460;DHT22;20704;51.260;22.558;2023-07-13T00:35:17;20.60;92.50
34460;DHT22;20704;51.260;22.558;2023-07-13T00:37:19;20.50;1.00
34460;DHT22;20704;51.260;22.558;2023-07-13T00:39:22;20.40;1.00
34460;DHT22;20704;51.260;22.558;2023-07-13T00:41:24;20.50;1.00
34460;DHT22;20704;51.260;22.558;2023-07-13T00:43:28;20.40;99.90
34460;DHT22;20704;51.260;22.558;2023-07-13T00:47:33;20.40;99.90
34460;DHT22;20704;51.260;22.558;2023-07-13T00:49:36;20.30;99.90
34460;DHT22;20704;51.260;22.558;2023-07-13T00:51:43;20.40;99.90
34460;DHT22;20704;51.260;22.558;2023-07-13T00:53:46;20.40;99.90
34460;DHT22;20704;51.260;22.558;2023-07-13T00:55:50;20.30;99.90
34460;DHT22;20704;51.260;22.558;2023-07-13T00:57:53;20.30;76.30
34460;DHT22;20704;51.260;22.558;2023-07-13T01:00:02;20.20;99.90
34460;DHT22;20704;51.260;22.558;2023-07-13T01:02:06;20.20;1.00
34460;DHT22;20704;51.260;22.558;2023-07-13T01:04:10;20.30;1.00
34460;DHT22;20704;51.260;22.558;2023-07-13T01:06:12;20.20;1.00
34460;DHT22;20704;51.260;22.558;2023-07-13T01:08:16;20.20;1.00
34460;DHT22;20704;51.260;22.558;2023-07-13T01:10:21;20.20;1.00
34460;DHT22;20704;51.260;22.558;2023-07-13T01:12:24;20.20;29.90
34460;DHT22;20704;51.260;22.558;2023-07-13T01:14:26;20.20;99.90
34460;DHT22;20704;51.260;22.558;2023-07-13T01:16:31;20.10;99.90
34460;DHT22;20704;51.260;22.558;2023-07-13T01:18:34;20.10;99.90
34460;DHT22;20704;51.260;22.558;2023-07-13T01:20:37;20.10;99.90
34460;DHT22;20704;51.260;22.558;2023-07-13T01:22:39;20.10;99.90
34460;DHT22;20704;51.260;22.558;2023-07-13T01:24:44;20.10;99.90
34460;DHT22;20704;51.260;22.558;2023-07-13T01:26:46;20.00;99.90
34460;DHT22;20704;51.260;22.558;2023-07-13T01:28:49;20.00;17.00
34460;DHT22;20704;51.260;22.558;2023-07-13T01:30:51;20.00;99.90
34460;DHT22;20704;51.260;22.558;2023-07-13T01:32:53;20.00;14.40
34460;DHT22;20704;51.260;22.558;2023-07-13T01:34:56;19.90;48.50
34460;DHT22;20704;51.260;22.558;2023-07-13T01:36:59;20.00;15.60
34460;DHT22;20704;51.260;22.558;2023-07-13T01:39:01;20.00;99.90
34460;DHT22;20704;51.260;22.558;2023-07-13T01:41:04;20.00;99.90
34460;DHT22;20704;51.260;22.558;2023-07-13T01:43:06;19.90;99.90
34460;DHT22;20704;51.260;22.558;2023-07-13T01:45:09;19.90;99.90
34460;DHT22;20704;51.260;22.558;2023-07-13T01:47:12;19.90;99.90
34460;DHT22;20704;51.260;22.558;2023-07-13T01:49:14;19.90;99.90
34460;DHT22;20704;51.260;22.558;2023-07-13T01:51:17;19.90;99.90
34460;DHT22;20704;51.260;22.558;2023-07-13T01:53:20;19.80;99.90
34460;DHT22;20704;51.260;22.558;2023-07-13T01:55:22;19.90;99.90
34460;DHT22;20704;51.260;22.558;2023-07-13T01:57:25;19.90;99.90
34460;DHT22;20704;51.260;22.558;2023-07-13T01:59:27;19.90;99.90
34460;DHT22;20704;51.260;22.558;2023-07-13T02:01:30;19.90;1.00
34460;DHT22;20704;51.260;22.558;2023-07-13T02:03:32;19.90;1.00
34460;DHT22;20704;51.260;22.558;2023-07-13T02:05:35;20.00;1.00
34460;DHT22;20704;51.260;22.558;2023-07-13T02:07:39;19.80;78.50
34460;DHT22;20704;51.260;22.558;2023-07-13T02:09:41;19.80;99.90
34460;DHT22;20704;51.260;22.558;2023-07-13T02:11:44;19.90;99.90
34460;DHT22;20704;51.260;22.558;2023-07-13T02:13:46;19.90;99.90
34460;DHT22;20704;51.260;22.558;2023-07-13T02:15:52;19.80;99.90
34460;DHT22;20704;51.260;22.558;2023-07-13T02:17:54;19.90;99.90
34460;DHT22;20704;51.260;22.558;2023-07-13T02:19:57;19.90;99.90
34460;DHT22;20704;51.260;22.558;2023-07-13T02:21:59;19.90;99.90
34460;DHT22;20704;51.260;22.558;2023-07-13T02:24:01;19.90;57.60
34460;DHT22;20704;51.260;22.558;2023-07-13T02:26:04;19.90;41.20
34460;DHT22;20704;51.260;22.558;2023-07-13T02:28:06;19.90;1.40
34460;DHT22;20704;51.260;22.558;2023-07-13T02:30:10;19.90;1.00
34460;DHT22;20704;51.260;22.558;2023-07-13T02:32:13;19.90;1.00
34460;DHT22;20704;51.260;22.558;2023-07-13T02:36:18;19.90;1.00
34460;DHT22;20704;51.260;22.558;2023-07-13T02:38:21;19.90;99.90
34460;DHT22;20704;51.260;22.558;2023-07-13T02:40:24;19.90;99.90
34460;DHT22;20704;51.260;22.558;2023-07-13T02:42:26;19.90;99.90
34460;DHT22;20704;51.260;22.558;2023-07-13T02:44:29;19.90;99.90
34460;DHT22;20704;51.260;22.558;2023-07-13T02:46:32;19.90;28.00
34460;DHT22;20704;51.260;22.558;2023-07-13T02:48:39;19.90;1.00
34460;DHT22;20704;51.260;22.558;2023-07-13T02:50:41;19.90;1.00
34460;DHT22;20704;51.260;22.558;2023-07-13T02:52:44;19.90;99.90
34460;DHT22;20704;51.260;22.558;2023-07-13T02:54:46;19.90;99.90
34460;DHT22;20704;51.260;22.558;2023-07-13T02:56:48;19.90;99.90
34460;DHT22;20704;51.260;22.558;2023-07-13T02:58:51;20.00;99.90
34460;DHT22;20704;51.260;22.558;2023-07-13T03:00:55;20.00;1.00
34460;DHT22;20704;51.260;22.558;2023-07-13T03:02:57;20.00;1.00
34460;DHT22;20704;51.260;22.558;2023-07-13T03:05:01;20.00;1.00
34460;DHT22;20704;51.260;22.558;2023-07-13T03:07:04;20.10;99.90
34460;DHT22;20704;51.260;22.558;2023-07-13T03:09:06;20.10;99.90
34460;DHT22;20704;51.260;22.558;2023-07-13T03:11:14;20.10;1.00
34460;DHT22;20704;51.260;22.558;2023-07-13T03:13:17;20.10;1.00
34460;DHT22;20704;51.260;22.558;2023-07-13T03:15:19;20.10;1.00
34460;DHT22;20704;51.260;22.558;2023-07-13T03:17:21;20.20;1.00
34460;DHT22;20704;51.260;22.558;2023-07-13T03:19:23;20.20;99.90
34460;DHT22;20704;51.260;22.558;2023-07-13T03:21:26;20.20;99.90
34460;DHT22;20704;51.260;22.558;2023-07-13T03:23:29;20.20;1.00
34460;DHT22;20704;51.260;22.558;2023-07-13T03:25:31;20.30;1.00
34460;DHT22;20704;51.260;22.558;2023-07-13T03:27:33;20.30;99.90
34460;DHT22;20704;51.260;22.558;2023-07-13T03:29:36;20.40;99.90
34460;DHT22;20704;51.260;22.558;2023-07-13T03:31:39;20.50;99.90
34460;DHT22;20704;51.260;22.558;2023-07-13T03:33:42;20.60;1.00
34460;DHT22;20704;51.260;22.558;2023-07-13T03:35:44;20.70;99.90
34460;DHT22;20704;51.260;22.558;2023-07-13T03:37:47;20.80;99.90
34460;DHT22;20704;51.260;22.558;2023-07-13T03:39:49;20.90;1.00
34460;DHT22;20704;51.260;22.558;2023-07-13T03:41:52;21.00;99.90
34460;DHT22;20704;51.260;22.558;2023-07-13T03:43:54;21.10;99.90
34460;DHT22;20704;51.260;22.558;2023-07-13T03:45:57;21.30;37.50
34460;DHT22;20704;51.260;22.558;2023-07-13T03:47:59;21.40;1.00
34460;DHT22;20704;51.260;22.558;2023-07-13T03:50:02;21.50;99.90
34460;DHT22;20704;51.260;22.558;2023-07-13T03:52:05;21.50;99.90
34460;DHT22;20704;51.260;22.558;2023-07-13T03:54:08;21.60;99.90
34460;DHT22;20704;51.260;22.558;2023-07-13T03:56:11;21.60;99.90
34460;DHT22;20704;51.260;22.558;2023-07-13T03:58:34;21.60;40.20
34460;DHT22;20704;51.260;22.558;2023-07-13T04:00:37;21.60;12.30
34460;DHT22;20704;51.260;22.558;2023-07-13T04:02:39;21.60;26.70
34460;DHT22;20704;51.260;22.558;2023-07-13T04:04:41;21.60;1.00
34460;DHT22;20704;51.260;22.558;2023-07-13T04:06:44;21.70;2.50
34460;DHT22;20704;51.260;22.558;2023-07-13T04:08:50;21.80;1.00
34460;DHT22;20704;51.260;22.558;2023-07-13T04:10:53;21.90;1.00
34460;DHT22;20704;51.260;22.558;2023-07-13T04:12:55;22.00;1.00
34460;DHT22;20704;51.260;22.558;2023-07-13T04:14:57;22.10;1.00
34460;DHT22;20704;51.260;22.558;2023-07-13T04:17:00;22.20;99.90
34460;DHT22;20704;51.260;22.558;2023-07-13T04:19:02;22.30;99.90
34460;DHT22;20704;51.260;22.558;2023-07-13T04:21:04;22.40;99.90
34460;DHT22;20704;51.260;22.558;2023-07-13T04:23:07;22.50;99.90
34460;DHT22;20704;51.260;22.558;2023-07-13T04:25:09;22.80;99.90
34460;DHT22;20704;51.260;22.558;2023-07-13T04:27:11;23.00;99.90
34460;DHT22;20704;51.260;22.558;2023-07-13T04:29:14;23.30;99.90
34460;DHT22;20704;51.260;22.558;2023-07-13T04:31:17;23.40;80.50
34460;DHT22;20704;51.260;22.558;2023-07-13T04:33:20;23.50;24.80
34460;DHT22;20704;51.260;22.558;2023-07-13T04:35:26;23.60;1.00
34460;DHT22;20704;51.260;22.558;2023-07-13T04:37:29;23.60;1.00
34460;DHT22;20704;51.260;22.558;2023-07-13T04:39:31;23.80;1.00
34460;DHT22;20704;51.260;22.558;2023-07-13T04:41:33;23.90;1.00
34460;DHT22;20704;51.260;22.558;2023-07-13T04:43:36;23.90;1.00
34460;DHT22;20704;51.260;22.558;2023-07-13T04:45:39;23.80;1.00
34460;DHT22;20704;51.260;22.558;2023-07-13T04:47:41;23.80;1.00
34460;DHT22;20704;51.260;22.558;2023-07-13T04:49:44;23.70;1.00
34460;DHT22;20704;51.260;22.558;2023-07-13T04:51:47;23.60;1.00
34460;DHT22;20704;51.260;22.558;2023-07-13T04:53:49;23.50;1.00
34460;DHT22;20704;51.260;22.558;2023-07-13T04:55:57;23.40;1.00
34460;DHT22;20704;51.260;22.558;2023-07-13T04:58:00;23.40;1.00
34460;DHT22;20704;51.260;22.558;2023-07-13T05:00:04;23.40;1.00
34460;DHT22;20704;51.260;22.558;2023-07-13T05:02:08;23.30;1.00
34460;DHT22;20704;51.260;22.558;2023-07-13T05:04:11;23.30;8.60
34460;DHT22;20704;51.260;22.558;2023-07-13T05:06:13;23.20;25.00
34460;DHT22;20704;51.260;22.558;2023-07-13T05:08:16;23.20;59.60
34460;DHT22;20704;51.260;22.558;2023-07-13T05:10:18;23.20;97.00
34460;DHT22;20704;51.260;22.558;2023-07-13T05:12:21;23.20;99.70
34460;DHT22;20704;51.260;22.558;2023-07-13T05:14:23;23.20;99.90
34460;DHT22;20704;51.260;22.558;2023-07-13T05:16:26;23.20;84.70
34460;DHT22;20704;51.260;22.558;2023-07-13T05:18:30;23.20;64.00
34460;DHT22;20704;51.260;22.558;2023-07-13T05:20:33;23.20;49.70
34460;DHT22;20704;51.260;22.558;2023-07-13T05:22:35;23.30;77.80
34460;DHT22;20704;51.260;22.558;2023-07-13T05:24:38;23.30;88.00
34460;DHT22;20704;51.260;22.558;2023-07-13T05:26:40;23.20;57.20
34460;DHT22;20704;51.260;22.558;2023-07-13T05:28:42;23.20;86.80
34460;DHT22;20704;51.260;22.558;2023-07-13T05:30:46;23.20;99.90
34460;DHT22;20704;51.260;22.558;2023-07-13T05:32:48;23.30;93.90
34460;DHT22;20704;51.260;22.558;2023-07-13T05:34:51;23.20;27.20
34460;DHT22;20704;51.260;22.558;2023-07-13T05:36:53;23.10;38.00
34460;DHT22;20704;51.260;22.558;2023-07-13T05:38:55;23.20;41.70
34460;DHT22;20704;51.260;22.558;2023-07-13T05:40:58;23.20;43.20
34460;DHT22;20704;51.260;22.558;2023-07-13T05:43:03;23.20;37.90
34460;DHT22;20704;51.260;22.558;2023-07-13T05:45:06;23.20;55.40
34460;DHT22;20704;51.260;22.558;2023-07-13T05:47:09;23.20;26.70
34460;DHT22;20704;51.260;22.558;2023-07-13T05:49:11;23.30;4.50
34460;DHT22;20704;51.260;22.558;2023-07-13T05:51:14;23.30;1.00
34460;DHT22;20704;51.260;22.558;2023-07-13T05:53:16;23.40;1.00
34460;DHT22;20704;51.260;22.558;2023-07-13T05:55:19;23.40;1.00
34460;DHT22;20704;51.260;22.558;2023-07-13T05:57:21;23.50;1.00
34460;DHT22;20704;51.260;22.558;2023-07-13T05:59:24;23.40;1.00
34460;DHT22;20704;51.260;22.558;2023-07-13T06:01:27;23.60;1.00
34460;DHT22;20704;51.260;22.558;2023-07-13T06:03:29;23.70;1.00
34460;DHT22;20704;51.260;22.558;2023-07-13T06:05:33;23.70;1.00
34460;DHT22;20704;51.260;22.558;2023-07-13T06:07:36;23.80;1.00
34460;DHT22;20704;51.260;22.558;2023-07-13T06:09:38;24.10;1.00
34460;DHT22;20704;51.260;22.558;2023-07-13T06:11:41;24.00;1.00
34460;DHT22;20704;51.260;22.558;2023-07-13T06:13:44;24.10;99.90
34460;DHT22;20704;51.260;22.558;2023-07-13T06:15:49;24.20;99.90
34460;DHT22;20704;51.260;22.558;2023-07-13T06:17:52;24.10;99.90
34460;DHT22;20704;51.260;22.558;2023-07-13T06:19:54;24.10;99.90
34460;DHT22;20704;51.260;22.558;2023-07-13T06:21:56;24.10;99.90
34460;DHT22;20704;51.260;22.558;2023-07-13T06:24:00;24.10;99.90
34460;DHT22;20704;51.260;22.558;2023-07-13T06:26:03;24.10;99.90
34460;DHT22;20704;51.260;22.558;2023-07-13T06:28:06;24.10;99.90
34460;DHT22;20704;51.260;22.558;2023-07-13T06:30:09;23.90;99.90
34460;DHT22;20704;51.260;22.558;2023-07-13T06:32:11;23.90;99.90
34460;DHT22;20704;51.260;22.558;2023-07-13T06:34:14;23.90;99.90
34460;DHT22;20704;51.260;22.558;2023-07-13T06:36:16;23.90;99.90
34460;DHT22;20704;51.260;22.558;2023-07-13T06:38:19;23.80;99.90
34460;DHT22;20704;51.260;22.558;2023-07-13T06:40:21;23.50;99.90
34460;DHT22;20704;51.260;22.558;2023-07-13T06:42:23;23.30;99.90
34460;DHT22;20704;51.260;22.558;2023-07-13T06:44:26;23.30;99.90
34460;DHT22;20704;51.260;22.558;2023-07-13T06:46:28;23.30;99.90
34460;DHT22;20704;51.260;22.558;2023-07-13T06:48:31;23.20;1.00
34460;DHT22;20704;51.260;22.558;2023-07-13T06:50:34;23.30;1.00
34460;DHT22;20704;51.260;22.558;2023-07-13T06:52:36;23.10;1.00
34460;DHT22;20704;51.260;22.558;2023-07-13T06:54:39;23.30;1.00
34460;DHT22;20704;51.260;22.558;2023-07-13T06:56:41;23.70;1.00
34460;DHT22;20704;51.260;22.558;2023-07-13T06:58:43;24.10;1.00
34460;DHT22;20704;51.260;22.558;2023-07-13T07:00:46;24.20;99.90
34460;DHT22;20704;51.260;22.558;2023-07-13T07:02:52;23.70;99.90
34460;DHT22;20704;51.260;22.558;2023-07-13T07:04:54;23.70;99.90
34460;DHT22;20704;51.260;22.558;2023-07-13T07:06:57;24.10;99.90
34460;DHT22;20704;51.260;22.558;2023-07-13T07:09:00;24.20;99.90
34460;DHT22;20704;51.260;22.558;2023-07-13T07:11:03;24.80;99.90
34460;DHT22;20704;51.260;22.558;2023-07-13T07:13:05;24.70;99.90
34460;DHT22;20704;51.260;22.558;2023-07-13T07:15:08;24.80;99.90
34460;DHT22;20704;51.260;22.558;2023-07-13T07:17:10;24.70;99.90
34460;DHT22;20704;51.260;22.558;2023-07-13T07:19:13;24.90;99.90
34460;DHT22;20704;51.260;22.558;2023-07-13T07:21:15;24.90;99.90
34460;DHT22;20704;51.260;22.558;2023-07-13T07:23:18;25.60;99.90
34460;DHT22;20704;51.260;22.558;2023-07-13T07:25:20;26.10;99.90
34460;DHT22;20704;51.260;22.558;2023-07-13T07:27:23;26.40;99.90
34460;DHT22;20704;51.260;22.558;2023-07-13T07:29:28;26.10;99.90
34460;DHT22;20704;51.260;22.558;2023-07-13T07:31:34;27.00;99.90
34460;DHT22;20704;51.260;22.558;2023-07-13T07:33:39;27.20;99.90
34460;DHT22;20704;51.260;22.558;2023-07-13T07:35:42;27.00;99.90
34460;DHT22;20704;51.260;22.558;2023-07-13T07:38:04;27.00;99.90
34460;DHT22;20704;51.260;22.558;2023-07-13T07:40:08;26.60;99.90
34460;DHT22;20704;51.260;22.558;2023-07-13T07:42:13;25.90;99.90
34460;DHT22;20704;51.260;22.558;2023-07-13T07:44:15;25.60;99.90
34460;DHT22;20704;51.260;22.558;2023-07-13T07:46:17;25.20;99.90
34460;DHT22;20704;51.260;22.558;2023-07-13T07:48:20;24.80;99.90
34460;DHT22;20704;51.260;22.558;2023-07-13T07:50:22;24.50;99.90
34460;DHT22;20704;51.260;22.558;2023-07-13T07:52:25;24.40;99.90
34460;DHT22;20704;51.260;22.558;2023-07-13T07:54:27;24.30;99.90
34460;DHT22;20704;51.260;22.558;2023-07-13T07:56:50;24.10;99.90
34460;DHT22;20704;51.260;22.558;2023-07-13T07:58:55;24.10;99.90
34460;DHT22;20704;51.260;22.558;2023-07-13T08:01:06;23.90;99.90
34460;DHT22;20704;51.260;22.558;2023-07-13T08:03:12;23.90;99.90
34460;DHT22;20704;51.260;22.558;2023-07-13T08:05:36;23.70;99.90
34460;DHT22;20704;51.260;22.558;2023-07-13T08:07:57;23.50;1.00
34460;DHT22;20704;51.260;22.558;2023-07-13T08:09:59;23.40;1.00
34460;DHT22;20704;51.260;22.558;2023-07-13T08:12:02;23.50;1.00
34460;DHT22;20704;51.260;22.558;2023-07-13T08:14:07;23.50;1.00
34460;DHT22;20704;51.260;22.558;2023-07-13T08:16:11;23.40;1.00
34460;DHT22;20704;51.260;22.558;2023-07-13T08:18:14;23.40;4.60
34460;DHT22;20704;51.260;22.558;2023-07-13T08:20:17;23.40;60.70
34460;DHT22;20704;51.260;22.558;2023-07-13T08:22:20;23.50;82.10
34460;DHT22;20704;51.260;22.558;2023-07-13T08:24:23;23.60;92.40
34460;DHT22;20704;51.260;22.558;2023-07-13T08:26:26;23.60;70.80
34460;DHT22;20704;51.260;22.558;2023-07-13T08:28:28;23.50;58.70
34460;DHT22;20704;51.260;22.558;2023-07-13T08:30:31;23.60;48.30
34460;DHT22;20704;51.260;22.558;2023-07-13T08:32:33;23.70;37.40
34460;DHT22;20704;51.260;22.558;2023-07-13T08:34:36;23.70;13.90
34460;DHT22;20704;51.260;22.558;2023-07-13T08:36:38;23.70;1.00
34460;DHT22;20704;51.260;22.558;2023-07-13T08:38:41;23.80;1.00
34460;DHT22;20704;51.260;22.558;2023-07-13T08:40:43;23.80;1.00
34460;DHT22;20704;51.260;22.558;2023-07-13T08:42:52;23.80;1.00
34460;DHT22;20704;51.260;22.558;2023-07-13T08:47:17;23.90;1.00
34460;DHT22;20704;51.260;22.558;2023-07-13T08:49:22;24.10;10.50
34460;DHT22;20704;51.260;22.558;2023-07-13T08:52:03;24.20;1.00
34460;DHT22;20704;51.260;22.558;2023-07-13T08:54:24;24.40;1.00
34460;DHT22;20704;51.260;22.558;2023-07-13T08:56:30;24.30;1.00
34460;DHT22;20704;51.260;22.558;2023-07-13T08:58:33;24.10;1.00
34460;DHT22;20704;51.260;22.558;2023-07-13T09:02:56;24.00;1.00
34460;DHT22;20704;51.260;22.558;2023-07-13T09:05:25;23.90;12.60
34460;DHT22;20704;51.260;22.558;2023-07-13T09:07:41;23.90;64.60
34460;DHT22;20704;51.260;22.558;2023-07-13T09:10:13;23.80;96.60
34460;DHT22;20704;51.260;22.558;2023-07-13T09:12:28;23.70;99.90
34460;DHT22;20704;51.260;22.558;2023-07-13T09:14:41;23.70;99.90
34460;DHT22;20704;51.260;22.558;2023-07-13T09:16:44;23.90;99.90
34460;DHT22;20704;51.260;22.558;2023-07-13T09:18:51;23.90;99.90
34460;DHT22;20704;51.260;22.558;2023-07-13T09:20:59;24.10;99.90
34460;DHT22;20704;51.260;22.558;2023-07-13T09:23:09;24.10;99.60
34460;DHT22;20704;51.260;22.558;2023-07-13T09:25:34;24.10;90.30
34460;DHT22;20704;51.260;22.558;2023-07-13T09:27:40;23.90;99.90
34460;DHT22;20704;51.260;22.558;2023-07-13T09:29:49;23.90;99.90
34460;DHT22;20704;51.260;22.558;2023-07-13T09:31:55;24.00;99.90
34460;DHT22;20704;51.260;22.558;2023-07-13T09:34:07;24.00;99.90
34460;DHT22;20704;51.260;22.558;2023-07-13T09:38:29;24.40;99.90
34460;DHT22;20704;51.260;22.558;2023-07-13T09:42:58;24.50;42.80
34460;DHT22;20704;51.260;22.558;2023-07-13T09:45:01;24.30;89.20
34460;DHT22;20704;51.260;22.558;2023-07-13T09:47:28;24.50;99.90
34460;DHT22;20704;51.260;22.558;2023-07-13T09:49:36;24.60;99.90
34460;DHT22;20704;51.260;22.558;2023-07-13T09:51:41;24.40;97.10
34460;DHT22;20704;51.260;22.558;2023-07-13T09:53:44;24.40;99.90
34460;DHT22;20704;51.260;22.558;2023-07-13T09:55:47;24.40;99.90
34460;DHT22;20704;51.260;22.558;2023-07-13T09:57:54;24.40;99.90
34460;DHT22;20704;51.260;22.558;2023-07-13T09:59:57;24.10;58.20
34460;DHT22;20704;51.260;22.558;2023-07-13T10:02:01;23.90;96.80
34460;DHT22;20704;51.260;22.558;2023-07-13T10:04:16;23.90;99.90
34460;DHT22;20704;51.260;22.558;2023-07-13T10:06:21;23.90;99.90
34460;DHT22;20704;51.260;22.558;2023-07-13T10:08:26;24.00;99.90
34460;DHT22;20704;51.260;22.558;2023-07-13T10:10:30;24.10;99.90
34460;DHT22;20704;51.260;22.558;2023-07-13T10:12:36;24.30;99.90
34460;DHT22;20704;51.260;22.558;2023-07-13T10:14:40;24.40;78.90
34460;DHT22;20704;51.260;22.558;2023-07-13T10:16:46;24.60;17.10
34460;DHT22;20704;51.260;22.558;2023-07-13T10:18:50;24.60;1.00
34460;DHT22;20704;51.260;22.558;2023-07-13T10:21:10;24.60;1.00
34460;DHT22;20704;51.260;22.558;2023-07-13T10:23:34;24.80;1.00
34460;DHT22;20704;51.260;22.558;2023-07-13T10:25:39;24.80;1.00
34460;DHT22;20704;51.260;22.558;2023-07-13T10:27:45;24.80;1.00
34460;DHT22;20704;51.260;22.558;2023-07-13T10:29:59;24.70;1.00
34460;DHT22;20704;51.260;22.558;2023-07-13T10:32:09;24.80;1.00
34460;DHT22;20704;51.260;22.558;2023-07-13T10:34:13;24.70;1.00
34460;DHT22;20704;51.260;22.558;2023-07-13T10:36:36;24.60;1.00
34460;DHT22;20704;51.260;22.558;2023-07-13T10:38:40;24.60;1.00
34460;DHT22;20704;51.260;22.558;2023-07-13T10:40:58;24.50;1.00
34460;DHT22;20704;51.260;22.558;2023-07-13T10:43:07;24.40;1.00
34460;DHT22;20704;51.260;22.558;2023-07-13T10:45:17;24.30;1.00
34460;DHT22;20704;51.260;22.558;2023-07-13T10:47:19;24.40;1.00
34460;DHT22;20704;51.260;22.558;2023-07-13T10:49:23;24.40;19.00
34460;DHT22;20704;51.260;22.558;2023-07-13T10:51:26;24.30;32.50
34460;DHT22;20704;51.260;22.558;2023-07-13T10:53:32;24.40;33.70
34460;DHT22;20704;51.260;22.558;2023-07-13T10:57:43;24.20;99.90
34460;DHT22;20704;51.260;22.558;2023-07-13T11:00:14;24.10;99.90
34460;DHT22;20704;51.260;22.558;2023-07-13T11:02:27;24.20;99.90
34460;DHT22;20704;51.260;22.558;2023-07-13T11:04:44;24.30;99.90
34460;DHT22;20704;51.260;22.558;2023-07-13T11:06:50;24.60;93.90
34460;DHT22;20704;51.260;22.558;2023-07-13T11:08:54;24.30;86.40
34460;DHT22;20704;51.260;22.558;2023-07-13T11:10:57;24.10;69.30
34460;DHT22;20704;51.260;22.558;2023-07-13T11:13:00;24.10;83.40
34460;DHT22;20704;51.260;22.558;2023-07-13T11:15:06;24.20;62.70
34460;DHT22;20704;51.260;22.558;2023-07-13T11:19:39;24.10;67.00
34460;DHT22;20704;51.260;22.558;2023-07-13T11:22:09;24.00;59.70
34460;DHT22;20704;51.260;22.558;2023-07-13T11:24:17;24.00;82.80
34460;DHT22;20704;51.260;22.558;2023-07-13T11:26:43;23.90;99.90
34460;DHT22;20704;51.260;22.558;2023-07-13T11:28:49;23.90;99.90
34460;DHT22;20704;51.260;22.558;2023-07-13T11:35:14;23.80;99.90
34460;DHT22;20704;51.260;22.558;2023-07-13T11:37:20;23.80;99.90
34460;DHT22;20704;51.260;22.558;2023-07-13T11:39:33;23.90;99.90
34460;DHT22;20704;51.260;22.558;2023-07-13T11:41:44;24.10;99.90
34460;DHT22;20704;51.260;22.558;2023-07-13T11:43:53;24.30;99.90
34460;DHT22;20704;51.260;22.558;2023-07-13T11:45:56;24.40;97.40
34460;DHT22;20704;51.260;22.558;2023-07-13T11:47:58;24.50;65.10
34460;DHT22;20704;51.260;22.558;2023-07-13T11:50:04;24.60;7.90
34460;DHT22;20704;51.260;22.558;2023-07-13T11:52:15;24.70;1.00
34460;DHT22;20704;51.260;22.558;2023-07-13T11:54:31;24.90;1.00
34460;DHT22;20704;51.260;22.558;2023-07-13T11:56:36;25.00;1.00
34460;DHT22;20704;51.260;22.558;2023-07-13T11:58:40;25.00;1.00
34460;DHT22;20704;51.260;22.558;2023-07-13T12:00:43;25.10;1.00
34460;DHT22;20704;51.260;22.558;2023-07-13T12:02:49;25.20;1.00
34460;DHT22;20704;51.260;22.558;2023-07-13T12:04:52;25.30;1.00
34460;DHT22;20704;51.260;22.558;2023-07-13T12:07:04;25.40;1.00
34460;DHT22;20704;51.260;22.558;2023-07-13T12:09:14;25.40;99.90
34460;DHT22;20704;51.260;22.558;2023-07-13T12:11:20;25.30;99.90
34460;DHT22;20704;51.260;22.558;2023-07-13T12:13:24;25.40;99.90
34460;DHT22;20704;51.260;22.558;2023-07-13T12:15:43;25.40;99.90
34460;DHT22;20704;51.260;22.558;2023-07-13T12:17:46;25.40;99.90
34460;DHT22;20704;51.260;22.558;2023-07-13T12:19:50;25.50;99.90
34460;DHT22;20704;51.260;22.558;2023-07-13T12:21:55;25.40;99.90
34460;DHT22;20704;51.260;22.558;2023-07-13T12:24:00;25.40;99.90
34460;DHT22;20704;51.260;22.558;2023-07-13T12:26:05;25.50;99.90
34460;DHT22;20704;51.260;22.558;2023-07-13T12:28:22;25.50;99.90
34460;DHT22;20704;51.260;22.558;2023-07-13T12:30:32;25.40;99.90
34460;DHT22;20704;51.260;22.558;2023-07-13T12:32:38;25.40;99.90
34460;DHT22;20704;51.260;22.558;2023-07-13T12:34:52;25.20;99.90
34460;DHT22;20704;51.260;22.558;2023-07-13T12:37:00;25.30;99.90
34460;DHT22;20704;51.260;22.558;2023-07-13T12:41:23;25.10;99.90
34460;DHT22;20704;51.260;22.558;2023-07-13T12:43:36;25.10;99.90
34460;DHT22;20704;51.260;22.558;2023-07-13T12:45:55;25.00;99.90
34460;DHT22;20704;51.260;22.558;2023-07-13T12:48:10;25.00;99.90
34460;DHT22;20704;51.260;22.558;2023-07-13T12:50:39;24.90;99.90
34460;DHT22;20704;51.260;22.558;2023-07-13T12:52:39;24.90;99.90
34460;DHT22;20704;51.260;22.558;2023-07-13T12:57:16;24.90;1.00
34460;DHT22;20704;51.260;22.558;2023-07-13T12:59:21;24.80;1.00
34460;DHT22;20704;51.260;22.558;2023-07-13T13:01:27;24.80;1.00
34460;DHT22;20704;51.260;22.558;2023-07-13T13:03:32;24.80;1.00
34460;DHT22;20704;51.260;22.558;2023-07-13T13:05:35;24.80;99.90
34460;DHT22;20704;51.260;22.558;2023-07-13T13:07:39;24.80;1.00
34460;DHT22;20704;51.260;22.558;2023-07-13T13:09:43;24.80;1.00
34460;DHT22;20704;51.260;22.558;2023-07-13T13:11:45;24.80;99.90
34460;DHT22;20704;51.260;22.558;2023-07-13T13:13:47;24.70;99.90
34460;DHT22;20704;51.260;22.558;2023-07-13T13:15:50;24.70;99.90
34460;DHT22;20704;51.260;22.558;2023-07-13T13:17:52;24.60;99.90
34460;DHT22;20704;51.260;22.558;2023-07-13T13:19:55;24.70;99.90
34460;DHT22;20704;51.260;22.558;2023-07-13T13:21:57;24.60;99.90
34460;DHT22;20704;51.260;22.558;2023-07-13T13:24:01;24.70;99.90
34460;DHT22;20704;51.260;22.558;2023-07-13T13:26:12;24.60;99.90
34460;DHT22;20704;51.260;22.558;2023-07-13T13:28:17;24.60;1.00
34460;DHT22;20704;51.260;22.558;2023-07-13T13:30:20;24.70;1.00